createdAt,value
2019-01-14T00:03:33.811Z,6.44
2019-01-14T00:07:39.204Z,6.38
2019-01-14T00:11:44.322Z,6.35
2019-01-14T00:15:49.372Z,6.43
2019-01-14T00:19:54.793Z,6.47
2019-01-14T00:24:00.056Z,6.44
2019-01-14T00:28:05.383Z,6.38
2019-01-14T00:32:10.537Z,6.43
2019-01-14T00:36:17.533Z,6.43
2019-01-14T00:40:22.383Z,6.46
2019-01-14T00:44:27.581Z,6.49
2019-01-14T00:48:32.754Z,6.60
2019-01-14T00:52:37.838Z,6.62
2019-01-14T00:56:42.964Z,6.60
2019-01-14T01:00:48.351Z,6.52
2019-01-14T01:04:53.420Z,6.57
2019-01-14T01:08:58.543Z,6.52
2019-01-14T01:13:03.989Z,6.52
2019-01-14T01:17:09.351Z,6.49
2019-01-14T01:21:14.458Z,6.43
2019-01-14T01:25:19.526Z,6.47
2019-01-14T01:29:24.595Z,6.42
2019-01-14T01:33:29.645Z,6.44
2019-01-14T01:37:34.674Z,6.40
2019-01-14T01:41:39.721Z,6.29
2019-01-14T01:45:44.843Z,6.31
2019-01-14T01:49:50.544Z,6.16
2019-01-14T01:53:55.576Z,6.18
2019-01-14T01:58:00.636Z,6.02
2019-01-14T02:02:05.783Z,5.86
2019-01-14T02:06:10.857Z,5.83
2019-01-14T02:10:22.960Z,5.83
2019-01-14T02:14:28.172Z,5.70
2019-01-14T02:18:33.312Z,5.63
2019-01-14T02:22:38.331Z,5.63
2019-01-14T02:26:44.435Z,5.83
2019-01-14T02:30:49.590Z,5.82
2019-01-14T02:34:54.730Z,5.90
2019-01-14T02:38:59.791Z,5.94
2019-01-14T02:43:05.091Z,6.05
2019-01-14T02:47:10.154Z,6.04
2019-01-14T02:51:15.781Z,6.04
2019-01-14T02:55:21.162Z,5.96
2019-01-14T02:59:26.261Z,5.91
2019-01-14T03:03:31.365Z,5.87
2019-01-14T03:07:36.902Z,5.96
2019-01-14T03:11:42.250Z,5.94
2019-01-14T03:15:47.315Z,5.86
2019-01-14T03:19:52.336Z,5.74
2019-01-14T03:23:57.393Z,5.53
2019-01-14T03:28:02.449Z,5.41
2019-01-14T03:32:07.520Z,5.39
2019-01-14T03:36:12.670Z,5.30
2019-01-14T03:40:18.379Z,5.20
2019-01-14T03:44:23.890Z,5.17
2019-01-14T03:48:28.947Z,5.11
2019-01-14T03:52:33.987Z,5.15
2019-01-14T03:56:39.021Z,5.10
2019-01-14T04:00:44.045Z,5.11
2019-01-14T04:04:49.351Z,5.08
2019-01-14T04:08:54.603Z,5.15
2019-01-14T04:12:59.663Z,5.12
2019-01-14T04:17:04.694Z,5.06
2019-01-14T04:21:09.754Z,5.12
2019-01-14T04:25:15.012Z,5.06
2019-01-14T04:29:20.112Z,5.08
2019-01-14T04:33:25.168Z,5.11
2019-01-14T04:37:30.352Z,5.11
2019-01-14T04:41:35.768Z,5.05
2019-01-14T04:45:41.848Z,5.00
2019-01-14T04:49:46.936Z,5.00
2019-01-14T04:53:51.984Z,5.10
2019-01-14T04:57:57.029Z,5.05
2019-01-14T05:02:02.189Z,5.16
2019-01-14T05:06:07.208Z,5.20
2019-01-14T05:10:12.919Z,5.21
2019-01-14T05:14:17.960Z,5.18
2019-01-14T05:18:23.110Z,5.23
2019-01-14T05:22:28.174Z,5.24
2019-01-14T05:26:33.165Z,5.27
2019-01-14T05:30:38.269Z,5.18
2019-01-14T05:34:43.304Z,5.09
2019-01-14T05:38:48.356Z,5.06
2019-01-14T05:42:53.382Z,5.04
2019-01-14T05:46:58.421Z,5.04
2019-01-14T05:51:03.499Z,5.01
2019-01-14T05:55:08.919Z,5.03
2019-01-14T05:59:14.011Z,5.01
2019-01-14T06:03:19.239Z,5.02
2019-01-14T06:07:24.302Z,4.98
2019-01-14T06:11:29.330Z,4.90
2019-01-14T06:15:34.613Z,4.90
2019-01-14T06:19:39.796Z,4.83
2019-01-14T06:23:44.924Z,4.79
2019-01-14T06:27:50.033Z,4.76
2019-01-14T06:31:55.090Z,4.74
2019-01-14T06:36:00.263Z,4.82
2019-01-14T06:40:07.403Z,4.89
2019-01-14T06:44:12.470Z,4.93
2019-01-14T06:48:17.484Z,4.98
2019-01-14T06:52:22.581Z,4.95
2019-01-14T06:56:27.625Z,4.92
2019-01-14T07:00:32.737Z,4.96
2019-01-14T07:04:38.010Z,4.99
2019-01-14T07:08:43.069Z,5.00
2019-01-14T07:12:48.134Z,5.00
2019-01-14T07:16:53.247Z,5.03
2019-01-14T07:20:58.261Z,5.03
2019-01-14T07:25:03.852Z,4.94
2019-01-14T07:29:08.867Z,4.85
2019-01-14T07:33:13.904Z,4.82
2019-01-14T07:37:18.917Z,4.88
2019-01-14T07:41:24.769Z,4.86
2019-01-14T07:45:30.126Z,4.83
2019-01-14T07:49:35.142Z,4.75
2019-01-14T07:53:40.230Z,4.88
2019-01-14T07:57:45.505Z,4.79
2019-01-14T08:01:50.539Z,4.87
2019-01-14T08:05:55.594Z,4.88
2019-01-14T08:10:00.719Z,4.93
2019-01-14T08:14:07.290Z,4.93
2019-01-14T08:18:12.338Z,5.04
2019-01-14T08:22:17.352Z,5.09
2019-01-14T08:26:22.357Z,5.15
2019-01-14T08:30:27.374Z,5.22
2019-01-14T08:34:32.377Z,5.25
2019-01-14T08:38:37.397Z,5.12
2019-01-14T08:42:42.562Z,5.17
2019-01-14T08:46:47.588Z,5.13
2019-01-14T08:50:52.625Z,4.69
2019-01-14T08:54:57.559Z,4.45
2019-01-14T08:59:02.570Z,4.35
2019-01-14T09:03:07.608Z,4.16
2019-01-14T09:07:13.634Z,4.24
2019-01-14T09:11:18.755Z,4.12
2019-01-14T09:15:23.797Z,4.09
2019-01-14T09:19:29.534Z,4.12
2019-01-14T09:23:34.791Z,4.49
2019-01-14T09:27:39.864Z,4.68
2019-01-14T09:31:45.015Z,5.40
2019-01-14T09:35:49.999Z,4.91
2019-01-14T09:39:55.020Z,5.08
2019-01-14T09:44:00.040Z,5.50
2019-01-14T09:48:05.067Z,6.05
2019-01-14T09:52:10.212Z,6.00
2019-01-14T09:56:15.221Z,5.79
2019-01-14T10:00:20.333Z,6.24
2019-01-14T10:04:25.486Z,5.70
2019-01-14T10:08:31.577Z,5.78
2019-01-14T10:12:36.479Z,5.71
2019-01-14T10:16:43.055Z,5.94
2019-01-14T10:20:48.008Z,5.84
2019-01-14T10:24:53.045Z,6.38
2019-01-14T10:28:58.074Z,6.67
2019-01-14T10:33:03.108Z,6.47
2019-01-14T10:37:08.342Z,6.53
2019-01-14T10:41:13.395Z,6.62
2019-01-14T10:45:22.730Z,6.75
2019-01-14T10:49:28.806Z,6.86
2019-01-14T10:53:33.926Z,6.35
2019-01-14T10:57:39.018Z,6.60
2019-01-14T11:01:44.038Z,6.46
2019-01-14T11:05:49.056Z,6.19
2019-01-14T11:09:54.102Z,6.10
2019-01-14T11:13:59.145Z,5.81
2019-01-14T11:18:04.128Z,5.79
2019-01-14T11:22:10.218Z,6.15
2019-01-14T11:26:15.251Z,6.33
2019-01-14T11:30:28.941Z,5.97
2019-01-14T11:34:33.914Z,6.00
2019-01-14T11:38:47.391Z,5.95
2019-01-14T11:42:52.486Z,5.81
2019-01-14T11:46:58.665Z,5.80
2019-01-14T11:51:03.977Z,5.78
2019-01-14T11:55:09.235Z,6.02
2019-01-14T11:59:14.346Z,7.14
2019-01-14T12:03:19.381Z,6.07
2019-01-14T12:07:24.419Z,6.37
2019-01-14T12:11:29.278Z,6.39
2019-01-14T12:15:34.326Z,6.37
2019-01-14T12:19:39.271Z,7.40
2019-01-14T12:23:44.327Z,6.88
2019-01-14T12:27:49.411Z,6.97
2019-01-14T12:31:54.429Z,6.95
2019-01-14T12:35:59.455Z,6.80
2019-01-14T12:40:05.234Z,7.17
2019-01-14T12:44:10.306Z,6.89
2019-01-14T12:48:15.317Z,6.98
2019-01-14T12:52:20.358Z,6.52
2019-01-14T12:56:25.401Z,6.98
2019-01-14T13:00:30.926Z,7.15
2019-01-14T13:04:36.222Z,6.68
2019-01-14T13:08:41.267Z,6.85
2019-01-14T13:12:46.330Z,6.85
2019-01-14T13:16:52.415Z,6.40
2019-01-14T13:20:57.464Z,6.09
2019-01-14T13:25:02.654Z,6.05
2019-01-14T13:29:08.334Z,5.73
2019-01-14T13:33:13.369Z,6.18
2019-01-14T13:37:19.014Z,6.91
2019-01-14T13:41:24.010Z,8.07
2019-01-14T13:45:28.980Z,7.64
2019-01-14T13:49:33.958Z,6.62
2019-01-14T13:53:39.220Z,6.13
2019-01-14T13:57:44.174Z,6.08
2019-01-14T14:01:49.123Z,6.24
2019-01-14T14:05:54.235Z,5.76
2019-01-14T14:09:59.293Z,5.88
2019-01-14T14:14:04.597Z,5.81
2019-01-14T14:18:09.623Z,5.77
2019-01-14T14:22:14.578Z,6.15
2019-01-14T14:26:19.730Z,5.63
2019-01-14T14:30:27.688Z,5.88
2019-01-14T14:34:32.613Z,6.24
2019-01-14T14:38:37.491Z,5.97
2019-01-14T14:42:42.793Z,6.97
2019-01-14T14:46:48.308Z,5.95
2019-01-14T14:50:53.571Z,6.63
2019-01-14T14:54:58.700Z,6.33
2019-01-14T14:59:03.719Z,6.38
2019-01-14T15:03:08.746Z,6.07
2019-01-14T15:07:14.015Z,5.37
2019-01-14T15:11:19.046Z,5.42
2019-01-14T15:15:24.754Z,5.37
2019-01-14T15:19:29.875Z,5.36
2019-01-14T15:23:34.886Z,5.13
2019-01-14T15:27:39.894Z,5.01
2019-01-14T15:31:44.978Z,5.17
2019-01-14T15:35:49.896Z,4.88
2019-01-14T15:39:54.839Z,4.82
2019-01-14T15:44:00.837Z,4.75
2019-01-14T15:48:05.800Z,4.68
2019-01-14T15:52:10.809Z,4.45
2019-01-14T15:56:15.792Z,4.33
2019-01-14T16:00:21.154Z,4.29
2019-01-14T16:04:26.167Z,4.03
2019-01-14T16:08:31.134Z,3.94
2019-01-14T16:12:36.247Z,3.77
2019-01-14T16:16:41.292Z,3.78
2019-01-14T16:20:46.226Z,3.65
2019-01-14T16:24:52.261Z,3.48
2019-01-14T16:28:57.307Z,3.29
2019-01-14T16:33:02.359Z,3.09
2019-01-14T16:37:07.413Z,3.15
2019-01-14T16:41:12.436Z,3.15
2019-01-14T16:45:23.252Z,3.15
2019-01-14T16:49:28.320Z,3.21
2019-01-14T16:53:33.361Z,3.03
2019-01-14T16:57:38.430Z,2.94
2019-01-14T17:01:43.456Z,2.86
2019-01-14T17:05:48.534Z,2.82
2019-01-14T17:09:53.667Z,2.88
2019-01-14T17:13:58.748Z,2.79
2019-01-14T17:18:04.148Z,2.86
2019-01-14T17:22:09.218Z,2.67
2019-01-14T17:26:14.331Z,2.71
2019-01-14T17:30:19.384Z,2.60
2019-01-14T17:34:24.521Z,2.56
2019-01-14T17:38:29.620Z,2.52
2019-01-14T17:42:34.708Z,2.63
2019-01-14T17:46:39.729Z,2.57
2019-01-14T17:50:44.774Z,2.61
2019-01-14T17:54:49.864Z,2.69
2019-01-14T17:58:54.955Z,2.57
2019-01-14T18:03:00.364Z,2.52
2019-01-14T18:07:05.436Z,2.50
2019-01-14T18:11:10.492Z,2.59
2019-01-14T18:15:15.723Z,2.70
2019-01-14T18:19:20.812Z,2.70
2019-01-14T18:23:26.440Z,2.72
2019-01-14T18:27:31.428Z,2.77
2019-01-14T18:31:36.510Z,2.71
2019-01-14T18:35:41.574Z,2.79
2019-01-14T18:39:46.619Z,2.92
2019-01-14T18:43:51.732Z,2.84
2019-01-14T18:47:56.840Z,2.80
2019-01-14T18:52:01.880Z,2.90
2019-01-14T18:56:07.066Z,3.00
2019-01-14T19:00:19.905Z,3.04
2019-01-14T19:04:24.919Z,3.01
2019-01-14T19:08:30.983Z,3.00
2019-01-14T19:12:37.071Z,2.94
2019-01-14T19:16:42.135Z,2.94
2019-01-14T19:20:47.233Z,2.81
2019-01-14T19:24:53.177Z,2.73
2019-01-14T19:28:58.167Z,2.70
2019-01-14T19:33:03.250Z,2.70
2019-01-14T19:37:08.797Z,2.71
2019-01-14T19:41:13.907Z,2.78
2019-01-14T19:45:20.470Z,2.92
2019-01-14T19:49:25.629Z,2.81
2019-01-14T19:53:30.657Z,2.76
2019-01-14T19:57:35.693Z,2.76
2019-01-14T20:01:40.861Z,2.85
2019-01-14T20:05:47.660Z,2.85
2019-01-14T20:09:53.456Z,2.83
2019-01-14T20:13:58.626Z,2.69
2019-01-14T20:18:03.727Z,2.56
2019-01-14T20:22:08.821Z,2.41
2019-01-14T20:26:13.839Z,2.32
2019-01-14T20:30:20.667Z,2.19
2019-01-14T20:34:25.694Z,2.15
2019-01-14T20:38:32.159Z,2.09
2019-01-14T20:42:37.307Z,2.09
2019-01-14T20:46:42.370Z,1.98
2019-01-14T20:50:49.793Z,1.88
2019-01-14T20:54:57.516Z,1.88
2019-01-14T20:59:02.535Z,1.75
2019-01-14T21:03:07.683Z,1.74
2019-01-14T21:07:12.749Z,1.81
2019-01-14T21:11:23.769Z,1.81
2019-01-14T21:15:25.591Z,1.75
2019-01-14T21:19:30.588Z,1.70
2019-01-14T21:23:35.647Z,1.71
2019-01-14T21:27:40.784Z,1.49
2019-01-14T21:31:46.213Z,1.68
2019-01-14T21:35:51.197Z,1.41
2019-01-14T21:39:56.251Z,1.38
2019-01-14T21:44:01.407Z,1.39
2019-01-14T21:48:06.451Z,1.45
2019-01-14T21:52:11.488Z,1.37
2019-01-14T21:56:16.621Z,1.40
2019-01-14T22:00:22.905Z,1.29
2019-01-14T22:04:27.937Z,1.20
2019-01-14T22:08:33.095Z,1.12
2019-01-14T22:12:38.150Z,1.05
2019-01-14T22:16:43.285Z,0.95
2019-01-14T22:20:48.202Z,0.99
2019-01-14T22:24:53.210Z,1.00
2019-01-14T22:28:58.310Z,0.98
2019-01-14T22:33:03.651Z,1.01
2019-01-14T22:37:08.726Z,0.90
2019-01-14T22:41:13.781Z,1.02
2019-01-14T22:45:19.204Z,0.99
2019-01-14T22:49:24.168Z,1.05
2019-01-14T22:53:29.220Z,1.13
2019-01-14T22:57:34.168Z,1.04
2019-01-14T23:01:44.274Z,1.11
2019-01-14T23:05:50.364Z,1.03
2019-01-14T23:09:55.422Z,0.94
2019-01-14T23:14:00.389Z,0.95
2019-01-14T23:18:05.494Z,0.98
2019-01-14T23:22:10.625Z,0.93
2019-01-14T23:26:15.598Z,0.97
2019-01-14T23:30:21.630Z,0.92
2019-01-14T23:34:26.652Z,0.94
2019-01-14T23:38:31.830Z,0.86
2019-01-14T23:42:39.853Z,0.86
2019-01-14T23:46:44.919Z,0.94
2019-01-14T23:50:50.236Z,0.92
2019-01-14T23:54:55.359Z,0.93
2019-01-14T23:59:00.414Z,0.88
